Latest Weather Observations for Dum In Mirrie

IDD60901

Issued at 6:41 pm CST Sunday 29 March 2015 (issued every 10 minutes, with the page automatically refreshed every 10 minutes)

About weather observations | Map of Darwin area stations | Latest observations for Darwin area | Other Formats
Station Details ID: 014277 Name: DUM IN MIRRIE AIRSTRIP Lat: -12.63 Lon: 130.37 Height: 3.5 m
Data from the previous 72 hours. | See also: Recent months at Dum In Mirrie
Date/Time
CST
Tmp

°C
App
Tmp
°C
Dew
Point
°C
Rel
Hum
%
Delta-T

°C
Wind Press
QNH
hPa
Press
MSL
hPa
Rain
since
9 am
mm
Dir
 
Spd
km/h
Gust
km/h
Spd
kts
Gust
kts
29/06:30pm 29.4 35.0 24.9 77 3.2 NW 4 6 2 3 1010.8 1010.8 0.0
29/06:00pm 29.9 35.7 25.2 76 3.3 NNW 4 7 2 4 1010.4 1010.4 0.0
29/05:30pm 29.9 35.3 25.2 76 3.3 NNW 6 9 3 5 1009.9 1009.9 0.0
29/05:00pm 30.3 35.7 25.1 73 3.7 NNW 6 9 3 5 1009.8 1009.8 0.0
29/04:30pm 30.5 35.8 24.9 72 3.9 NW 6 11 3 6 1009.7 1009.7 0.0
29/04:00pm 30.8 36.1 24.9 71 4.2 NW 6 13 3 7 1009.8 1009.8 0.0
29/03:30pm 31.1 36.0 25.2 71 4.2 NNW 9 13 5 7 1009.8 1009.8 0.0
29/03:00pm 31.3 35.1 24.7 68 4.6 N 13 20 7 11 1009.9 1009.9 0.0
29/02:30pm 31.8 36.0 25.4 69 4.5 N 13 20 7 11 1010.1 1010.1 0.0
29/02:00pm 31.9 35.7 24.7 65 5.1 NNE 13 19 7 10 1010.5 1010.5 0.0
29/01:30pm 31.8 36.0 24.7 66 5.0 NNE 11 17 6 9 1011.0 1011.0 0.0
29/01:00pm 32.4 37.0 24.2 62 5.7 NE 7 15 4 8 1011.4 1011.4 0.0
29/12:30pm 31.8 36.0 24.1 63 5.4 NE 9 17 5 9 1011.8 1011.8 0.0
29/12:00pm 31.4 35.8 24.5 67 4.8 NE 9 17 5 9 1012.3 1012.3 0.0
29/11:30am 31.2 35.9 24.3 66 4.8 NE 7 15 4 8 1012.6 1012.6 0.0
29/11:00am 30.8 34.6 23.5 65 5.0 E 9 17 5 9 1012.9 1012.9 0.0
29/10:30am 30.6 34.2 23.0 64 5.2 ENE 9 15 5 8 1013.2 1013.2 0.0
29/10:00am 29.9 35.2 25.0 75 3.4 ESE 6 9 3 5 1013.1 1013.1 0.0
29/09:30am 29.1 34.4 24.9 78 2.9 ESE 6 7 3 4 1013.0 1013.0 0.0
29/09:00am 28.5 34.0 25.3 83 2.2 E 6 9 3 5 1013.0 1013.0 12.4
29/08:30am 27.2 32.5 25.2 89 1.4 ESE 7 9 4 5 1012.7 1012.7 12.4
29/08:00am 26.3 32.6 26.0 98 0.2 ESE 4 6 2 3 1012.4 1012.4 12.4
29/07:30am 25.6 31.5 25.3 98 0.2 SE 4 6 2 3 1012.0 1012.0 12.4
29/07:00am 25.2 30.5 24.9 98 0.2 E 6 7 3 4 1011.6 1011.6 12.4
29/06:30am 25.0 30.2 24.8 99 0.1 ESE 6 7 3 4 1011.3 1011.3 12.4
29/06:00am 24.9 30.0 24.7 99 0.1 ESE 6 7 3 4 1011.1 1011.1 12.4
29/05:30am 24.7 30.5 24.5 99 0.1 ESE 2 4 1 2 1010.9 1010.9 12.4
29/05:00am 24.5 30.5 24.2 98 0.2 CALM 0 0 0 0 1010.5 1010.5 12.4
29/04:30am 24.4 30.3 24.1 98 0.2 CALM 0 0 0 0 1010.6 1010.6 12.4
29/04:00am 24.0 28.9 23.7 98 0.2 ENE 4 7 2 4 1010.8 1010.8 12.2
29/03:30am 24.1 29.8 23.8 98 0.2 CALM 0 0 0 0 1011.0 1011.0 12.0
29/03:00am 24.1 29.1 23.8 98 0.2 NW 4 6 2 3 1011.0 1011.0 12.0
29/02:30am 24.1 27.4 23.8 98 0.2 E 13 30 7 16 1011.5 1011.5 7.8
29/02:00am 25.0 27.2 21.1 79 2.6 NNE 11 32 6 17 1011.8 1011.8 0.0
29/01:30am 28.1 34.2 25.1 84 2.1 WNW 2 4 1 2 1011.9 1011.9 0.0
29/01:00am 28.0 33.6 24.8 83 2.2 W 4 9 2 5 1011.6 1011.6 0.0
29/12:30am 28.0 33.6 24.8 83 2.2 NW 4 6 2 3 1012.0 1012.0 0.0
29/12:00am 28.3 34.1 25.1 83 2.2 W 4 6 2 3 1012.5 1012.5 0.0
 
Date/Time
CST
Tmp

°C
App
Tmp
°C
Dew
Point
°C
Rel
Hum
%
Delta-T

°C
Wind Press
QNH
hPa
Press
MSL
hPa
Rain
since
9 am
mm
Dir
 
Spd
km/h
Gust
km/h
Spd
kts
Gust
kts
28/11:30pm 28.3 33.7 25.1 83 2.2 WNW 6 9 3 5 1012.5 1012.5 0.0
28/11:00pm 28.2 33.8 24.8 82 2.4 WNW 4 4 2 2 1012.7 1012.7 0.0
28/10:30pm 28.6 34.0 25.2 82 2.4 WNW 6 11 3 6 1012.5 1012.5 0.0
28/10:00pm 28.7 34.2 24.7 79 2.8 W 4 7 2 4 1012.4 1012.4 0.0
28/09:30pm 28.8 33.9 24.6 78 2.9 W 6 11 3 6 1012.2 1012.2 0.0
28/09:00pm 28.9 33.9 24.5 77 3.1 WNW 6 9 3 5 1012.1 1012.1 0.0
28/08:30pm 28.9 34.0 24.7 78 2.9 WNW 6 11 3 6 1012.0 1012.0 0.0
28/08:00pm 28.9 34.1 24.2 76 3.3 NW 4 7 2 4 1011.6 1011.6 0.0
28/07:30pm 28.9 33.5 23.8 74 3.5 NNW 6 11 3 6 1011.4 1011.4 0.0
28/07:00pm 28.9 33.5 23.8 74 3.5 NNW 6 9 3 5 1011.0 1011.0 0.0
28/06:30pm 29.7 35.0 24.3 73 3.8 NW 4 9 2 5 1010.7 1010.7 0.0
28/06:00pm 30.2 35.5 24.4 71 4.0 NW 4 9 2 5 1010.2 1010.2 0.0
28/05:30pm 30.7 35.8 24.6 70 4.3 WNW 6 11 3 6 1010.2 1010.2 0.0
28/05:00pm 31.0 35.9 24.6 68 4.5 WNW 7 13 4 7 1010.1 1010.1 0.0
28/04:30pm 30.6 34.9 24.3 69 4.4 NNW 9 13 5 7 1009.7 1009.7 0.0
28/04:00pm 31.1 35.2 24.5 68 4.6 NNW 11 19 6 10 1009.6 1009.6 0.0
28/03:30pm 31.0 35.1 24.6 68 4.5 NNW 11 19 6 10 1009.8 1009.8 0.0
28/03:00pm 31.2 35.8 25.3 71 4.2 NNW 11 17 6 9 1010.2 1010.2 0.0
28/02:30pm 31.4 36.3 25.3 70 4.3 NNW 9 17 5 9 1010.5 1010.5 0.0
28/02:00pm 31.2 35.4 24.8 69 4.5 N 11 17 6 9 1011.0 1011.0 0.0
28/01:30pm 31.6 36.7 25.5 70 4.3 N 9 13 5 7 1011.4 1011.4 0.0
28/01:00pm 31.1 35.6 25.2 71 4.2 NNW 11 17 6 9 1011.7 1011.7 0.0
28/12:30pm 30.4 34.9 25.2 74 3.7 NNW 11 17 6 9 1012.3 1012.3 0.0
28/12:00pm 30.9 36.3 25.5 73 3.8 NNE 7 13 4 7 1012.5 1012.5 0.0
28/11:30am 30.4 35.4 24.8 72 3.9 N 7 15 4 8 1012.9 1012.9 0.0
28/11:00am 29.9 35.1 24.8 74 3.6 NE 6 9 3 5 1013.3 1013.3 0.0
28/10:30am 29.8 34.6 25.1 76 3.3 NNE 9 13 5 7 1013.3 1013.3 0.0
28/10:00am 29.3 34.5 24.8 77 3.1 NE 6 7 3 4 1013.1 1013.1 0.0
28/09:30am 29.0 34.1 24.6 77 3.1 ENE 6 9 3 5 1012.9 1012.9 0.0
28/09:00am 28.8 33.5 23.9 75 3.4 ESE 6 11 3 6 1012.8 1012.8 0.4
28/08:30am 27.8 32.3 24.0 80 2.6 ESE 7 11 4 6 1012.5 1012.5 0.4
28/08:00am 26.5 31.5 24.5 89 1.4 ESE 6 7 3 4 1012.4 1012.4 0.4
28/07:30am 25.3 31.5 24.6 96 0.5 CALM 0 0 0 0 1011.8 1011.8 0.4
28/07:00am 24.7 29.6 23.7 94 0.7 NE 4 6 2 3 1011.5 1011.5 0.4
28/06:30am 24.4 29.1 23.4 94 0.7 NE 4 6 2 3 1011.2 1011.2 0.4
28/06:00am 24.5 29.7 23.5 94 0.7 ENE 2 4 1 2 1011.1 1011.1 0.4
28/05:30am 24.8 29.9 23.4 92 1.0 ENE 2 4 1 2 1010.9 1010.9 0.4
28/05:00am 24.6 28.8 23.2 92 0.9 E 6 6 3 3 1010.9 1010.9 0.4
28/04:30am 24.9 29.5 23.1 90 1.2 E 4 6 2 3 1010.8 1010.8 0.4
28/04:00am 24.8 29.7 23.6 93 0.8 ENE 4 6 2 3 1010.9 1010.9 0.4
28/03:30am 24.9 29.2 23.3 91 1.1 ENE 6 6 3 3 1011.0 1011.0 0.4
28/03:00am 25.3 29.5 23.2 88 1.4 E 6 7 3 4 1011.2 1011.2 0.4
28/02:30am 25.4 29.6 23.1 87 1.6 ESE 6 7 3 4 1011.5 1011.5 0.4
28/02:00am 25.2 29.0 22.7 86 1.7 E 7 9 4 5 1011.6 1011.6 0.4
28/01:30am 25.2 29.0 22.7 86 1.7 ESE 7 9 4 5 1012.0 1012.0 0.4
28/01:00am 25.3 29.5 23.2 88 1.4 SE 6 7 3 4 1012.4 1012.4 0.4
28/12:30am 25.6 29.6 23.1 86 1.7 ESE 7 11 4 6 1012.7 1012.7 0.4
28/12:00am 25.5 29.7 23.4 88 1.4 ESE 7 11 4 6 1012.9 1012.9 0.4
 
Date/Time
CST
Tmp

°C
App
Tmp
°C
Dew
Point
°C
Rel
Hum
%
Delta-T

°C
Wind Press
QNH
hPa
Press
MSL
hPa
Rain
since
9 am
mm
Dir
 
Spd
km/h
Gust
km/h
Spd
kts
Gust
kts
27/11:30pm 25.6 30.0 23.8 90 1.2 ESE 7 11 4 6 1013.1 1013.1 0.4
27/11:00pm 25.8 30.4 23.8 89 1.4 SE 6 11 3 6 1013.3 1013.3 0.4
27/10:30pm 26.1 30.6 24.0 88 1.4 ESE 7 13 4 7 1013.6 1013.6 0.4
27/10:00pm 26.2 30.3 23.9 87 1.6 ESE 9 15 5 8 1013.7 1013.7 0.4
27/09:30pm 26.1 30.8 24.0 88 1.4 ESE 6 9 3 5 1013.5 1013.5 0.4
27/09:00pm 26.4 31.2 24.2 88 1.5 SE 6 11 3 6 1013.5 1013.5 0.4
27/08:30pm 26.7 31.6 24.4 87 1.6 SE 6 11 3 6 1013.3 1013.3 0.4
27/08:00pm 27.0 32.1 24.6 87 1.7 SE 6 9 3 5 1012.8 1012.8 0.4
27/07:30pm 27.5 32.6 24.6 84 2.0 E 6 11 3 6 1012.3 1012.3 0.4
27/07:00pm 27.6 33.7 24.4 83 2.2 CALM 0 0 0 0 1011.5 1011.5 0.4
27/06:30pm 28.4 33.6 24.2 78 2.9 ENE 4 6 2 3 1011.4 1011.4 0.4
27/06:00pm 28.8 33.5 23.9 75 3.4 ENE 6 9 3 5 1011.2 1011.2 0.4
27/05:30pm 29.4 33.9 23.6 71 4.0 NNE 6 9 3 5 1010.7 1010.7 0.4
27/05:00pm 29.5 32.8 23.2 69 4.3 NNE 11 19 6 10 1010.2 1010.2 0.4
27/04:30pm 29.9 33.4 22.9 66 4.8 NNE 9 15 5 8 1009.7 1009.7 0.4
27/04:00pm 29.7 33.8 23.2 68 4.5 NE 7 13 4 7 1010.0 1010.0 0.4
27/03:30pm 30.3 34.5 24.7 72 3.9 NE 11 17 6 9 1010.6 1010.6 0.4
27/03:00pm 29.1 32.0 23.8 73 3.7 ENE 15 20 8 11 1011.1 1011.1 0.4
27/02:30pm 28.9 32.4 24.2 76 3.3 ENE 13 19 7 10 1011.8 1011.8 0.4
27/02:00pm 28.6 32.3 23.9 75 3.2 ENE 11 20 6 11 1012.1 1012.1 0.4
27/01:30pm 28.2 32.3 24.6 81 2.5 E 11 19 6 10 1012.6 1012.6 0.4
27/01:00pm 28.4 32.5 24.6 80 2.6 ENE 11 17 6 9 1013.2 1013.2 0.4
27/12:30pm 27.7 31.3 24.3 82 2.4 E 13 20 7 11 1013.5 1013.5 0.4
27/12:00pm 27.0 31.1 24.5 86 1.7 E 11 17 6 9 1013.5 1013.5 0.4
27/11:30am 27.4 31.1 24.5 84 2.0 E 13 20 7 11 1013.4 1013.4 0.4
27/11:00am 26.7 30.2 24.9 90 1.3 E 15 20 8 11 1013.6 1013.6 0.4
27/10:30am 25.7 30.8 25.0 96 0.5 E 7 15 4 8 1014.0 1014.0 0.4
27/10:00am 25.6 31.2 25.4 99 0.1 NE 6 13 3 7 1014.3 1014.3 0.4
27/09:30am 24.9 30.0 24.7 99 0.1 ENE 6 11 3 6 1014.7 1014.7 0.4
27/09:00am 24.2 28.7 24.0 99 0.1 ENE 7 9 4 5 1014.7 1014.7 73.6
27/08:30am 24.1 28.6 23.9 99 0.1 ENE 7 11 4 6 1015.1 1015.1 72.2
27/08:00am 23.8 28.7 23.6 99 0.1 ENE 4 6 2 3 1015.1 1015.1 69.2
27/07:30am 23.8 28.2 23.5 98 0.2 NNE 6 11 3 6 1015.0 1015.0 66.0
27/07:00am 23.8 27.6 23.5 98 0.2 NNE 9 19 5 10 1014.3 1014.3 63.6
27/06:30am 24.1 29.1 23.9 99 0.1 NE 4 6 2 3 1013.8 1013.8 58.8
27/06:00am 23.9 28.4 23.6 98 0.2 ENE 6 7 3 4 1013.3 1013.3 57.4
27/05:30am 24.0 27.2 23.7 98 0.2 NE 13 22 7 12 1013.1 1013.1 55.2
27/05:00am 23.8 26.5 23.5 98 0.2 NNE 15 24 8 13 1012.7 1012.7 48.0
27/04:30am 24.8 28.9 24.5 98 0.2 NE 11 17 6 9 1012.4 1012.4 38.0
27/04:00am 24.4 27.8 24.1 98 0.2 E 13 20 7 11 1012.2 1012.2 35.8
27/03:30am 23.9 25.8 23.4 97 0.3 E 19 32 10 17 1012.8 1012.8 33.6
27/03:00am 24.9 30.0 24.0 95 0.6 ENE 4 13 2 7 1012.0 1012.0 21.6
27/02:30am 25.6 31.5 25.3 98 0.2 N 4 19 2 10 1011.6 1011.6 15.6
27/02:00am 25.5 28.7 25.0 97 0.3 N 17 26 9 14 1011.7 1011.7 9.8
27/01:30am 26.7 28.9 24.0 85 1.9 NNE 19 43 10 23 1012.2 1012.2 8.0
27/01:00am 27.9 31.9 25.1 85 2.0 ENE 13 22 7 12 1012.2 1012.2 8.0
27/12:30am 27.9 31.3 24.7 83 2.2 NE 15 22 8 12 1012.4 1012.4 8.0
27/12:00am 27.7 31.5 24.7 84 2.1 NE 13 20 7 11 1012.8 1012.8 8.0
 
Date/Time
CST
Tmp

°C
App
Tmp
°C
Dew
Point
°C
Rel
Hum
%
Delta-T

°C
Wind Press
QNH
hPa
Press
MSL
hPa
Rain
since
9 am
mm
Dir
 
Spd
km/h
Gust
km/h
Spd
kts
Gust
kts
26/11:30pm 27.7 32.0 24.9 85 2.0 NE 11 20 6 11 1012.4 1012.4 7.8
26/11:00pm 27.6 32.5 25.2 87 1.7 NE 9 17 5 9 1012.7 1012.7 7.8
26/10:30pm 27.5 32.2 25.5 89 1.4 NE 11 17 6 9 1012.8 1012.8 7.8
26/10:00pm 27.6 32.5 25.8 90 1.3 NE 11 20 6 11 1012.5 1012.5 7.8
26/09:30pm 27.2 32.1 25.8 92 1.0 NE 11 19 6 10 1012.3 1012.3 7.8
26/09:00pm 26.8 32.2 25.4 92 1.0 ENE 7 13 4 7 1012.3 1012.3 7.8
26/08:30pm 26.8 32.1 25.8 94 0.7 ENE 9 13 5 7 1011.9 1011.9 7.8
26/08:00pm 26.4 31.4 25.4 94 0.7 ENE 9 17 5 9 1011.7 1011.7 7.8
26/07:30pm 26.1 30.8 24.9 93 0.8 E 9 15 5 8 1011.2 1011.2 7.8
26/07:00pm 26.1 30.1 25.1 94 0.7 ENE 13 26 7 14 1011.1 1011.1 7.8

Latest Capital City Observations: Canberra | Sydney | Melbourne | Brisbane | Adelaide | Perth | Hobart | Darwin

Other Formats:

Comma delimited format used in spreadsheet applications
http://www.bom.gov.au/fwo/IDD60901/IDD60901.94116.axf

JavaScript Object Notation format (JSON) in row-major order
http://www.bom.gov.au/fwo/IDD60901/IDD60901.94116.json